createdAt,value
2023-03-29T00:01:00.993Z,71.42
2023-03-29T00:02:02.931Z,70.30
2023-03-29T00:03:04.881Z,69.91
2023-03-29T00:04:07.010Z,69.19
2023-03-29T00:05:09.956Z,68.89
2023-03-29T00:06:15.209Z,69.92
2023-03-29T00:07:16.858Z,68.94
2023-03-29T00:08:22.007Z,70.28
2023-03-29T00:09:26.555Z,70.19
2023-03-29T00:10:28.503Z,70.57
2023-03-29T00:11:30.230Z,71.78
2023-03-29T00:12:32.251Z,71.67
2023-03-29T00:13:34.082Z,72.01
2023-03-29T00:14:35.795Z,73.44
2023-03-29T00:15:37.512Z,73.89
2023-03-29T00:16:39.694Z,73.54
2023-03-29T00:17:41.460Z,74.55
2023-03-29T00:18:43.785Z,74.38
2023-03-29T00:19:46.632Z,74.82
2023-03-29T00:20:58.963Z,74.43
2023-03-29T00:22:00.675Z,76.46
2023-03-29T00:23:02.385Z,74.64
2023-03-29T00:24:04.274Z,75.66
2023-03-29T00:25:07.286Z,76.13
2023-03-29T00:26:08.926Z,75.40
2023-03-29T00:27:10.571Z,75.39
2023-03-29T00:28:13.891Z,75.02
2023-03-29T00:29:16.018Z,75.71
2023-03-29T00:30:17.793Z,76.68
2023-03-29T00:31:19.469Z,76.92
2023-03-29T00:32:21.161Z,77.25
2023-03-29T00:33:22.858Z,78.43
2023-03-29T00:34:26.386Z,78.38
2023-03-29T00:35:28.039Z,78.66
2023-03-29T00:36:29.679Z,78.69
2023-03-29T00:37:31.603Z,79.17
2023-03-29T00:38:33.387Z,79.60
2023-03-29T00:39:36.323Z,80.29
2023-03-29T00:40:43.090Z,80.44
2023-03-29T00:41:49.727Z,80.61
2023-03-29T00:42:51.405Z,82.13
2023-03-29T00:44:01.755Z,82.36
2023-03-29T00:45:12.390Z,82.49
2023-03-29T00:46:15.355Z,80.86
2023-03-29T00:47:18.188Z,81.83
2023-03-29T00:48:22.526Z,82.87
2023-03-29T00:49:24.200Z,83.11
2023-03-29T00:50:31.657Z,83.54
2023-03-29T00:51:35.789Z,82.05
2023-03-29T00:52:39.600Z,82.49
2023-03-29T00:53:48.610Z,83.16
2023-03-29T00:54:54.274Z,83.45
2023-03-29T00:56:14.207Z,84.28
2023-03-29T00:57:17.408Z,83.93
2023-03-29T00:58:23.445Z,85.01
2023-03-29T00:59:27.607Z,84.30
2023-03-29T01:00:33.602Z,84.07
2023-03-29T01:03:37.402Z,83.13
2023-03-29T01:04:53.686Z,84.03
2023-03-29T01:05:58.662Z,84.23
2023-03-29T01:07:28.505Z,86.53
2023-03-29T01:08:35.589Z,87.29
2023-03-29T01:09:40.970Z,86.69
2023-03-29T01:10:50.250Z,86.46
2023-03-29T01:11:55.070Z,84.88
2023-03-29T01:13:03.246Z,84.52
2023-03-29T01:14:07.450Z,84.73
2023-03-29T01:15:12.204Z,85.11
2023-03-29T01:16:20.652Z,84.89
2023-03-29T01:17:25.850Z,84.17
2023-03-29T01:18:27.983Z,86.65
2023-03-29T01:19:36.959Z,85.75
2023-03-29T01:21:24.165Z,84.65
2023-03-29T01:22:30.696Z,84.80
2023-03-29T01:23:55.080Z,84.61
2023-03-29T01:25:46.921Z,87.38
2023-03-29T01:27:12.811Z,85.02
2023-03-29T01:28:35.135Z,84.98
2023-03-29T01:29:48.535Z,85.21
2023-03-29T01:30:53.602Z,85.19
2023-03-29T01:32:22.329Z,84.99
2023-03-29T01:33:29.251Z,84.42
2023-03-29T01:35:03.602Z,85.44
2023-03-29T01:36:13.792Z,85.72
2023-03-29T01:37:30.746Z,86.79
2023-03-29T01:38:48.574Z,86.78
2023-03-29T01:39:52.160Z,87.41
2023-03-29T01:40:54.939Z,86.61
2023-03-29T01:42:09.403Z,86.45
2023-03-29T01:43:28.635Z,85.60
2023-03-29T01:44:42.005Z,85.82
2023-03-29T01:46:08.122Z,86.60
2023-03-29T01:47:21.035Z,86.63
2023-03-29T01:48:28.209Z,86.96
2023-03-29T01:49:40.196Z,86.75
2023-03-29T01:51:14.043Z,87.55
2023-03-29T01:52:27.254Z,86.80
2023-03-29T01:53:52.184Z,86.12
2023-03-29T01:55:01.470Z,87.00
2023-03-29T01:56:08.545Z,87.08
2023-03-29T01:57:10.803Z,86.65
2023-03-29T01:58:13.160Z,87.07
2023-03-29T01:59:20.766Z,86.38
2023-03-29T02:00:25.387Z,87.61
2023-03-29T02:01:32.580Z,86.81
2023-03-29T02:02:35.000Z,87.49
2023-03-29T02:03:42.784Z,87.33
2023-03-29T02:04:53.483Z,86.75
2023-03-29T02:05:56.629Z,87.29
2023-03-29T02:07:04.474Z,87.98
2023-03-29T02:08:08.311Z,87.25
2023-03-29T02:09:10.680Z,87.59
2023-03-29T02:10:15.395Z,87.73
2023-03-29T02:11:17.891Z,87.69
2023-03-29T02:12:20.677Z,87.87
2023-03-29T02:13:23.768Z,87.49
2023-03-29T02:14:27.919Z,88.78
2023-03-29T02:15:30.697Z,88.02
2023-03-29T02:16:37.169Z,88.14
2023-03-29T02:17:38.997Z,88.35
2023-03-29T02:18:45.848Z,87.84
2023-03-29T02:19:53.834Z,88.15
2023-03-29T02:20:57.507Z,88.02
2023-03-29T02:22:04.600Z,88.38
2023-03-29T02:23:28.817Z,87.70
2023-03-29T02:24:34.598Z,88.11
2023-03-29T02:25:38.317Z,89.28
2023-03-29T02:26:41.953Z,88.14
2023-03-29T02:27:44.370Z,88.51
2023-03-29T02:28:46.165Z,88.61
2023-03-29T02:29:50.213Z,88.40
2023-03-29T02:31:00.229Z,88.68
2023-03-29T02:32:02.522Z,88.53
2023-03-29T02:33:10.975Z,88.95
2023-03-29T02:34:28.924Z,88.27
2023-03-29T02:35:36.684Z,88.62
2023-03-29T02:37:01.480Z,89.39
2023-03-29T02:38:07.378Z,89.03
2023-03-29T02:39:13.938Z,89.62
2023-03-29T02:40:17.110Z,89.22
2023-03-29T02:41:20.029Z,89.15
2023-03-29T02:42:24.221Z,88.34
2023-03-29T02:43:28.614Z,88.65
2023-03-29T02:44:34.184Z,88.42
2023-03-29T02:45:38.274Z,88.86
2023-03-29T02:46:50.087Z,89.80
2023-03-29T02:47:56.324Z,89.84
2023-03-29T02:49:00.636Z,88.80
2023-03-29T02:50:02.947Z,89.01
2023-03-29T02:51:16.330Z,89.04
2023-03-29T02:52:24.049Z,88.98
2023-03-29T02:53:50.478Z,89.31
2023-03-29T02:54:54.531Z,89.17
2023-03-29T02:55:56.837Z,88.71
2023-03-29T02:57:06.616Z,89.51
2023-03-29T02:58:13.766Z,88.44
2023-03-29T02:59:18.063Z,88.78
2023-03-29T03:00:20.531Z,89.90
2023-03-29T03:01:23.088Z,88.33
2023-03-29T03:02:29.789Z,88.39
2023-03-29T03:03:32.838Z,90.03
2023-03-29T03:04:36.668Z,88.71
2023-03-29T03:05:39.072Z,88.78
2023-03-29T03:06:41.808Z,89.10
2023-03-29T03:07:48.672Z,89.78
2023-03-29T03:08:51.730Z,88.91
2023-03-29T03:09:53.802Z,88.27
2023-03-29T03:10:55.934Z,88.36
2023-03-29T03:11:58.075Z,88.42
2023-03-29T03:13:00.897Z,88.00
2023-03-29T03:14:06.951Z,88.76
2023-03-29T03:15:11.914Z,88.92
2023-03-29T03:16:15.768Z,88.63
2023-03-29T03:17:19.295Z,88.87
2023-03-29T03:18:23.793Z,90.13
2023-03-29T03:19:26.376Z,90.01
2023-03-29T03:20:28.123Z,88.08
2023-03-29T03:21:31.785Z,90.43
2023-03-29T03:22:36.889Z,87.65
2023-03-29T03:23:39.077Z,87.62
2023-03-29T03:24:42.085Z,88.33
2023-03-29T03:25:46.276Z,87.98
2023-03-29T03:26:50.093Z,88.01
2023-03-29T03:27:53.726Z,87.88
2023-03-29T03:29:01.247Z,89.25
2023-03-29T03:30:22.960Z,88.48
2023-03-29T03:31:55.387Z,89.72
2023-03-29T03:33:18.538Z,89.02
2023-03-29T03:34:38.994Z,89.64
2023-03-29T03:35:43.425Z,89.81
2023-03-29T03:36:58.048Z,90.75
2023-03-29T03:38:00.664Z,88.87
2023-03-29T03:39:07.222Z,88.41
2023-03-29T03:40:12.266Z,88.91
2023-03-29T03:41:16.071Z,89.38
2023-03-29T03:42:18.593Z,89.51
2023-03-29T03:43:21.827Z,89.42
2023-03-29T03:44:25.303Z,89.37
2023-03-29T03:45:43.854Z,89.22
2023-03-29T03:46:49.651Z,89.36
2023-03-29T03:47:52.099Z,89.37
2023-03-29T03:49:29.184Z,89.92
2023-03-29T03:50:32.083Z,89.86
2023-03-29T03:51:35.568Z,89.92
2023-03-29T03:52:38.544Z,89.88
2023-03-29T03:53:41.891Z,88.46
2023-03-29T03:54:51.123Z,88.74
2023-03-29T03:56:18.308Z,89.79
2023-03-29T03:57:38.678Z,88.32
2023-03-29T03:58:44.385Z,88.00
2023-03-29T03:59:46.397Z,87.92
2023-03-29T04:00:55.323Z,88.29
2023-03-29T04:02:18.576Z,86.96
2023-03-29T04:03:22.113Z,86.83
2023-03-29T04:04:25.185Z,85.82
2023-03-29T04:05:50.421Z,85.52
2023-03-29T04:07:03.263Z,84.82
2023-03-29T04:08:48.115Z,84.47
2023-03-29T04:10:13.937Z,84.91
2023-03-29T04:11:37.385Z,83.92
2023-03-29T04:12:40.286Z,83.61
2023-03-29T04:13:43.052Z,83.10
2023-03-29T04:15:05.327Z,83.56
2023-03-29T04:16:09.639Z,83.63
2023-03-29T04:17:14.463Z,83.55
2023-03-29T04:18:40.858Z,83.15
2023-03-29T04:19:43.372Z,81.86
2023-03-29T04:20:46.436Z,82.09
2023-03-29T04:21:51.657Z,82.60
2023-03-29T04:22:55.621Z,81.74
2023-03-29T04:23:57.625Z,82.33
2023-03-29T04:25:22.916Z,82.45
2023-03-29T04:26:25.279Z,82.52
2023-03-29T04:27:37.246Z,82.17
2023-03-29T04:28:45.954Z,81.88
2023-03-29T04:29:57.409Z,82.55
2023-03-29T04:31:14.641Z,81.23
2023-03-29T04:32:25.664Z,81.34
2023-03-29T04:33:33.472Z,80.76
2023-03-29T04:34:42.118Z,81.65
2023-03-29T04:35:44.629Z,80.67
2023-03-29T04:36:51.305Z,81.40
2023-03-29T04:37:57.469Z,81.53
2023-03-29T04:39:01.828Z,81.28
2023-03-29T04:40:09.760Z,80.78
2023-03-29T04:41:27.766Z,81.13
2023-03-29T04:42:49.510Z,80.85
2023-03-29T04:43:53.638Z,81.39
2023-03-29T04:45:01.156Z,81.16
2023-03-29T04:46:27.383Z,81.11
2023-03-29T04:47:48.423Z,81.87
2023-03-29T04:48:54.845Z,81.86
2023-03-29T04:50:07.427Z,80.70
2023-03-29T04:51:18.095Z,81.63
2023-03-29T04:52:23.222Z,81.48
2023-03-29T04:53:26.872Z,82.07
2023-03-29T04:54:29.146Z,81.50
2023-03-29T04:56:01.039Z,80.97
2023-03-29T04:57:29.479Z,81.56
2023-03-29T04:58:39.766Z,81.91
2023-03-29T04:59:42.824Z,80.84
2023-03-29T05:01:11.034Z,81.47
2023-03-29T05:02:18.426Z,81.08
2023-03-29T05:03:23.467Z,81.37
2023-03-29T05:04:33.153Z,81.08
2023-03-29T05:05:44.089Z,81.89
2023-03-29T05:06:46.339Z,81.46
2023-03-29T05:07:48.447Z,81.59
2023-03-29T05:08:53.477Z,81.90
2023-03-29T05:10:00.412Z,82.14
2023-03-29T05:11:03.415Z,81.24
2023-03-29T05:12:06.890Z,81.30
2023-03-29T05:13:22.376Z,81.82
2023-03-29T05:14:24.317Z,81.20
2023-03-29T05:15:27.990Z,82.01
2023-03-29T05:16:32.759Z,81.48
2023-03-29T05:17:35.385Z,82.14
2023-03-29T05:18:43.075Z,81.47
2023-03-29T05:19:46.340Z,82.73
2023-03-29T05:20:53.530Z,81.64
2023-03-29T05:21:56.542Z,81.63
2023-03-29T05:23:01.979Z,81.55
2023-03-29T05:24:33.706Z,81.87
2023-03-29T05:25:42.100Z,82.34
2023-03-29T05:26:44.931Z,81.97
2023-03-29T05:27:50.090Z,82.04
2023-03-29T05:28:53.522Z,82.37
2023-03-29T05:29:58.019Z,81.83
2023-03-29T05:31:17.257Z,81.99
2023-03-29T05:32:24.165Z,81.89
2023-03-29T05:33:26.095Z,81.49
2023-03-29T05:34:31.571Z,82.57
2023-03-29T05:35:37.354Z,81.65
2023-03-29T05:36:45.648Z,81.38
2023-03-29T05:37:48.214Z,81.92
2023-03-29T05:38:50.362Z,81.77
2023-03-29T05:39:55.029Z,81.56
2023-03-29T05:41:14.197Z,82.21
2023-03-29T05:42:54.856Z,80.74
2023-03-29T05:43:57.197Z,81.35
2023-03-29T05:45:02.560Z,80.89
2023-03-29T05:46:06.264Z,81.19
2023-03-29T05:47:08.380Z,81.81
2023-03-29T05:48:11.621Z,80.29
2023-03-29T05:49:17.155Z,81.46
2023-03-29T05:50:42.391Z,81.86
2023-03-29T05:51:46.713Z,82.38
2023-03-29T05:52:49.357Z,81.64
2023-03-29T05:53:53.386Z,81.46
2023-03-29T05:54:56.810Z,81.01
2023-03-29T05:55:59.177Z,81.08
2023-03-29T05:57:05.077Z,80.80
2023-03-29T05:58:08.952Z,80.40
2023-03-29T05:59:11.859Z,80.72
2023-03-29T06:00:23.643Z,79.82
2023-03-29T06:01:32.779Z,79.51
2023-03-29T06:02:42.537Z,79.47
2023-03-29T06:03:48.086Z,79.73
2023-03-29T06:04:52.221Z,79.07
2023-03-29T06:06:15.369Z,78.85
2023-03-29T06:07:18.128Z,79.04
2023-03-29T06:08:35.141Z,78.97
2023-03-29T06:09:48.109Z,77.60
2023-03-29T06:10:52.065Z,78.52
2023-03-29T06:12:20.548Z,78.57
2023-03-29T06:13:31.138Z,77.33
2023-03-29T06:14:32.986Z,75.76
2023-03-29T06:15:52.703Z,75.43
2023-03-29T06:16:55.159Z,74.70
2023-03-29T06:17:57.457Z,74.32
2023-03-29T06:18:59.846Z,74.82
2023-03-29T06:20:08.510Z,73.72
2023-03-29T06:21:11.125Z,72.44
2023-03-29T06:22:14.993Z,72.61
2023-03-29T06:23:18.214Z,72.54
2023-03-29T06:24:20.799Z,73.28
2023-03-29T06:25:28.759Z,72.98
2023-03-29T06:26:31.054Z,73.80
2023-03-29T06:27:33.616Z,73.33
2023-03-29T06:28:36.633Z,73.28
2023-03-29T06:29:41.404Z,73.98
2023-03-29T06:30:44.754Z,72.68
2023-03-29T06:31:47.324Z,73.19
2023-03-29T06:33:08.986Z,74.05
2023-03-29T06:34:25.980Z,74.29
2023-03-29T06:35:57.886Z,74.58
2023-03-29T06:37:03.598Z,74.12
2023-03-29T06:38:05.729Z,74.88
2023-03-29T06:39:27.829Z,74.25
2023-03-29T06:40:48.764Z,73.49
2023-03-29T06:41:52.009Z,73.78
2023-03-29T06:43:13.311Z,74.40
2023-03-29T06:44:28.836Z,73.70
2023-03-29T06:45:40.360Z,74.05
2023-03-29T06:46:51.911Z,74.47
2023-03-29T06:47:54.344Z,73.98
2023-03-29T06:48:56.963Z,74.01
2023-03-29T06:50:06.857Z,74.33
2023-03-29T06:51:21.123Z,74.67
2023-03-29T06:52:26.296Z,74.11
2023-03-29T06:53:35.462Z,73.52
2023-03-29T06:54:41.647Z,73.83
2023-03-29T06:55:44.308Z,74.05
2023-03-29T06:57:08.207Z,74.09
2023-03-29T06:58:11.370Z,73.46
2023-03-29T06:59:15.706Z,73.46
2023-03-29T07:00:29.947Z,74.04
2023-03-29T07:01:53.025Z,73.60
2023-03-29T07:03:20.938Z,73.09
2023-03-29T07:04:26.694Z,73.55
2023-03-29T07:05:47.867Z,72.98
2023-03-29T07:07:01.854Z,72.93
2023-03-29T07:08:05.801Z,72.80
2023-03-29T07:09:19.586Z,73.06
2023-03-29T07:10:53.587Z,72.93
2023-03-29T07:12:14.364Z,73.58
2023-03-29T07:13:17.645Z,73.50
2023-03-29T07:14:19.917Z,72.49
2023-03-29T07:15:23.272Z,72.68
2023-03-29T07:17:01.372Z,71.87
2023-03-29T07:18:08.896Z,73.00
2023-03-29T07:19:12.723Z,72.32
2023-03-29T07:20:29.437Z,73.26
2023-03-29T07:21:40.491Z,72.30
2023-03-29T07:22:44.103Z,72.23
2023-03-29T07:23:46.154Z,71.73
2023-03-29T07:24:50.461Z,72.31
2023-03-29T07:25:53.282Z,71.58
2023-03-29T07:27:03.799Z,71.64
2023-03-29T07:28:08.421Z,71.28
2023-03-29T07:29:10.763Z,71.80
2023-03-29T07:30:16.980Z,71.44
2023-03-29T07:31:19.201Z,70.87
2023-03-29T07:32:28.493Z,71.03
2023-03-29T07:33:53.747Z,70.71
2023-03-29T07:34:55.778Z,71.28
2023-03-29T07:36:05.876Z,71.60
2023-03-29T07:37:09.557Z,71.06
2023-03-29T07:38:15.931Z,71.37
2023-03-29T07:39:26.325Z,71.60
2023-03-29T07:40:59.796Z,71.83
2023-03-29T07:42:22.392Z,72.15
2023-03-29T07:43:25.902Z,71.59
2023-03-29T07:44:29.820Z,72.60
2023-03-29T07:45:32.905Z,72.18
2023-03-29T07:46:45.652Z,72.77
2023-03-29T07:47:49.295Z,73.65
2023-03-29T07:48:51.427Z,72.35
2023-03-29T07:49:53.687Z,72.06
2023-03-29T07:50:56.295Z,71.76
2023-03-29T07:52:05.440Z,72.49
2023-03-29T07:53:13.836Z,72.66
2023-03-29T07:54:16.868Z,73.08
2023-03-29T07:55:33.340Z,73.73
2023-03-29T07:56:44.708Z,73.80
2023-03-29T07:58:14.439Z,73.70
2023-03-29T07:59:18.737Z,73.46
2023-03-29T08:00:28.101Z,73.36
2023-03-29T08:01:52.644Z,73.98
2023-03-29T08:03:14.358Z,73.19
2023-03-29T08:04:19.278Z,73.07
2023-03-29T08:05:41.651Z,73.35
2023-03-29T08:06:50.449Z,74.07
2023-03-29T08:07:55.883Z,73.58
2023-03-29T08:09:16.450Z,73.69
2023-03-29T08:10:20.758Z,73.41
2023-03-29T08:11:55.297Z,72.36
2023-03-29T08:13:08.596Z,70.78
2023-03-29T08:14:22.075Z,67.85
2023-03-29T08:15:46.335Z,64.68
2023-03-29T08:17:00.219Z,64.83
2023-03-29T08:18:02.199Z,60.86
2023-03-29T08:19:05.247Z,58.96
2023-03-29T08:20:26.517Z,58.19
2023-03-29T08:21:31.881Z,58.01
2023-03-29T08:22:34.470Z,57.28
2023-03-29T08:23:46.352Z,56.18
2023-03-29T08:24:57.471Z,59.19
2023-03-29T08:26:05.565Z,57.77
2023-03-29T08:27:08.304Z,60.47
2023-03-29T08:28:10.263Z,60.96
2023-03-29T08:29:19.927Z,60.58
2023-03-29T08:30:22.905Z,61.44
2023-03-29T08:31:26.554Z,61.61
2023-03-29T08:32:29.560Z,63.21
2023-03-29T08:33:32.505Z,62.60
2023-03-29T08:35:12.940Z,63.90
2023-03-29T08:36:28.094Z,63.64
2023-03-29T08:37:33.638Z,64.24
2023-03-29T08:38:36.190Z,63.60
2023-03-29T08:39:40.412Z,64.07
2023-03-29T08:41:00.028Z,64.36
2023-03-29T08:42:16.631Z,63.65
2023-03-29T08:43:23.036Z,65.44
2023-03-29T08:45:08.298Z,65.17
2023-03-29T08:46:16.909Z,64.94
2023-03-29T08:47:38.104Z,64.96
2023-03-29T08:48:46.383Z,65.24
2023-03-29T08:49:57.148Z,64.72
2023-03-29T08:51:23.385Z,63.83
2023-03-29T08:52:38.131Z,62.95
2023-03-29T08:54:02.735Z,61.98
2023-03-29T08:55:43.506Z,61.99
2023-03-29T08:57:19.791Z,61.76
2023-03-29T08:58:29.259Z,62.30
2023-03-29T08:59:33.699Z,61.77
2023-03-29T09:00:47.834Z,62.11
2023-03-29T09:01:53.938Z,61.25
2023-03-29T09:02:57.665Z,60.53
2023-03-29T09:04:03.666Z,59.73
2023-03-29T09:05:31.314Z,59.25
2023-03-29T09:06:44.451Z,58.87
2023-03-29T09:07:53.736Z,59.42
2023-03-29T09:08:57.371Z,58.43
2023-03-29T09:10:01.400Z,59.31
2023-03-29T09:11:28.214Z,57.62
2023-03-29T09:12:30.374Z,58.03
2023-03-29T09:14:02.916Z,58.67
2023-03-29T09:15:19.754Z,58.62
2023-03-29T09:16:38.894Z,59.16
2023-03-29T09:18:08.503Z,56.97
2023-03-29T09:19:34.586Z,58.98
2023-03-29T09:20:54.030Z,58.64
2023-03-29T09:22:09.416Z,59.12
2023-03-29T09:23:39.257Z,57.85
2023-03-29T09:25:01.840Z,58.07
2023-03-29T09:26:04.236Z,57.95
2023-03-29T09:27:28.014Z,57.01
2023-03-29T09:28:53.657Z,56.70
2023-03-29T09:30:26.104Z,57.36
2023-03-29T09:31:43.054Z,56.12
2023-03-29T09:32:55.478Z,57.57
2023-03-29T09:34:24.184Z,55.73
2023-03-29T09:35:33.606Z,56.19
2023-03-29T09:36:56.710Z,57.68
2023-03-29T09:37:58.816Z,56.66
2023-03-29T09:39:01.346Z,56.74
2023-03-29T09:40:14.057Z,57.06
2023-03-29T09:41:57.365Z,56.97
2023-03-29T09:43:02.310Z,56.86
2023-03-29T09:44:27.796Z,57.11
2023-03-29T09:45:38.848Z,57.04
2023-03-29T09:46:52.994Z,58.70
2023-03-29T09:47:58.933Z,56.85
2023-03-29T09:49:07.684Z,58.59
2023-03-29T09:50:30.032Z,57.69
2023-03-29T09:51:34.649Z,58.57
2023-03-29T09:52:37.459Z,57.79
2023-03-29T09:53:49.336Z,57.89
2023-03-29T09:55:04.957Z,58.27
2023-03-29T09:56:19.475Z,58.08
2023-03-29T09:57:27.117Z,56.60
2023-03-29T09:58:32.782Z,56.04
2023-03-29T09:59:36.097Z,56.12
2023-03-29T10:00:42.295Z,56.29
2023-03-29T10:01:47.501Z,56.66
2023-03-29T10:02:57.406Z,57.13
2023-03-29T10:04:10.990Z,56.68
2023-03-29T10:05:16.356Z,55.79
2023-03-29T10:06:21.336Z,55.94
2023-03-29T10:07:44.560Z,55.74
2023-03-29T10:08:51.627Z,55.44
2023-03-29T10:09:56.345Z,55.28
2023-03-29T10:10:59.171Z,55.49
2023-03-29T10:12:05.518Z,54.42
2023-03-29T10:13:12.724Z,55.44
2023-03-29T10:14:23.266Z,55.10
2023-03-29T10:15:29.978Z,56.11
2023-03-29T10:16:46.610Z,55.32
2023-03-29T10:17:48.739Z,55.63
2023-03-29T10:18:51.524Z,55.50
2023-03-29T10:19:58.263Z,56.17
2023-03-29T10:21:03.075Z,55.62
2023-03-29T10:22:16.413Z,53.73
2023-03-29T10:23:19.037Z,52.89
2023-03-29T10:24:26.065Z,53.84
2023-03-29T10:25:31.822Z,53.26
2023-03-29T10:26:34.671Z,53.15
2023-03-29T10:27:36.772Z,53.28
2023-03-29T10:28:40.386Z,52.81
2023-03-29T10:29:44.060Z,53.71
2023-03-29T10:30:49.089Z,51.42
2023-03-29T10:31:51.409Z,52.20
2023-03-29T10:32:59.199Z,51.40
2023-03-29T10:34:04.100Z,50.27
2023-03-29T10:35:25.009Z,49.94
2023-03-29T10:36:27.754Z,51.06
2023-03-29T10:37:30.031Z,48.95
2023-03-29T10:38:33.469Z,49.04
2023-03-29T10:39:35.792Z,47.65
2023-03-29T10:40:43.558Z,49.12
2023-03-29T10:41:45.878Z,47.66
2023-03-29T10:42:52.289Z,46.27
2023-03-29T10:43:54.948Z,46.66
2023-03-29T10:45:00.550Z,47.53
2023-03-29T10:46:13.479Z,47.45
2023-03-29T10:47:18.049Z,47.50
2023-03-29T10:48:26.408Z,46.71
2023-03-29T10:49:28.316Z,47.20
2023-03-29T10:50:35.092Z,46.37
2023-03-29T10:51:37.608Z,46.32
2023-03-29T10:52:40.411Z,45.13
2023-03-29T10:53:42.774Z,45.81
2023-03-29T10:54:45.330Z,46.14
2023-03-29T10:56:23.502Z,45.65
2023-03-29T10:57:46.900Z,45.18
2023-03-29T10:59:02.384Z,47.03
2023-03-29T11:00:11.370Z,44.92
2023-03-29T11:01:16.771Z,45.41
2023-03-29T11:02:42.099Z,47.81
2023-03-29T11:04:05.867Z,47.29
2023-03-29T11:05:26.514Z,45.36
2023-03-29T11:06:43.453Z,45.93
2023-03-29T11:08:07.082Z,46.26
2023-03-29T11:09:24.771Z,46.32
2023-03-29T11:10:57.916Z,47.21
2023-03-29T11:12:22.070Z,46.15
2023-03-29T11:13:33.456Z,45.39
2023-03-29T11:14:44.316Z,46.70
2023-03-29T11:16:05.230Z,46.42
2023-03-29T11:17:19.024Z,46.25
2023-03-29T11:18:54.711Z,47.82
2023-03-29T11:20:13.360Z,46.83
2023-03-29T11:21:33.480Z,46.73
2023-03-29T11:22:44.835Z,48.55
2023-03-29T11:23:52.245Z,47.78
2023-03-29T11:25:21.514Z,47.10
2023-03-29T11:26:48.713Z,46.54
2023-03-29T11:28:21.559Z,46.46
2023-03-29T11:29:25.483Z,46.09
2023-03-29T11:30:36.444Z,46.14
2023-03-29T11:31:48.396Z,45.26
2023-03-29T11:32:51.755Z,45.77
2023-03-29T11:34:12.183Z,44.95
2023-03-29T11:35:23.912Z,46.27
2023-03-29T11:36:36.008Z,45.37
2023-03-29T11:37:51.886Z,45.19
2023-03-29T11:39:04.899Z,45.88
2023-03-29T11:40:36.952Z,45.18
2023-03-29T11:41:42.081Z,44.76
2023-03-29T11:42:47.721Z,44.84
2023-03-29T11:43:51.753Z,46.44
2023-03-29T11:44:56.311Z,45.19
2023-03-29T11:46:06.494Z,46.14
2023-03-29T11:47:37.617Z,44.53
2023-03-29T11:48:51.227Z,44.81
2023-03-29T11:49:58.811Z,45.96
2023-03-29T11:51:21.648Z,46.28
2023-03-29T11:52:44.194Z,46.09
2023-03-29T11:53:49.173Z,47.51
2023-03-29T11:54:57.355Z,47.92
2023-03-29T11:56:09.086Z,46.84
2023-03-29T11:57:33.596Z,47.21
2023-03-29T11:58:39.123Z,46.74
2023-03-29T11:59:49.032Z,47.86
2023-03-29T12:01:10.135Z,47.80
2023-03-29T12:02:38.305Z,48.06
2023-03-29T12:03:57.004Z,48.80
2023-03-29T12:05:02.342Z,47.37
2023-03-29T12:06:12.203Z,47.19
2023-03-29T12:07:17.479Z,47.54
2023-03-29T12:08:41.016Z,46.93
2023-03-29T12:09:50.346Z,46.75
2023-03-29T12:10:58.527Z,47.09
2023-03-29T12:12:13.333Z,46.35
2023-03-29T12:13:15.172Z,46.52
2023-03-29T12:14:29.895Z,44.91
2023-03-29T12:15:50.394Z,44.15
2023-03-29T12:17:01.775Z,44.92
2023-03-29T12:18:15.402Z,43.76
2023-03-29T12:19:23.160Z,44.84
2023-03-29T12:20:28.722Z,44.45
2023-03-29T12:21:35.498Z,43.79
2023-03-29T12:22:38.284Z,44.52
2023-03-29T12:23:42.372Z,43.47
2023-03-29T12:24:46.607Z,42.37
2023-03-29T12:25:58.421Z,43.57
2023-03-29T12:27:20.829Z,43.78
2023-03-29T12:28:41.336Z,42.26
2023-03-29T12:29:55.813Z,42.44
2023-03-29T12:31:42.409Z,44.83
2023-03-29T12:33:15.323Z,42.96
2023-03-29T12:34:58.876Z,42.98
2023-03-29T12:36:09.583Z,44.38
2023-03-29T12:38:05.777Z,44.97
2023-03-29T12:39:37.689Z,43.60
2023-03-29T12:41:23.398Z,43.27
2023-03-29T12:43:05.612Z,43.19
2023-03-29T12:44:25.469Z,43.72
2023-03-29T12:45:39.932Z,45.65
2023-03-29T12:46:42.056Z,44.70
2023-03-29T12:47:45.705Z,45.00
2023-03-29T12:48:51.790Z,45.57
2023-03-29T12:49:57.517Z,45.45
2023-03-29T12:51:04.686Z,45.27
2023-03-29T12:52:27.805Z,44.51
2023-03-29T12:53:35.359Z,44.37
2023-03-29T12:54:37.727Z,43.89
2023-03-29T12:55:43.966Z,43.55
2023-03-29T12:56:52.574Z,43.42
2023-03-29T12:58:26.990Z,42.99
2023-03-29T12:59:42.535Z,44.68
2023-03-29T13:00:46.132Z,43.03
2023-03-29T13:02:28.632Z,43.72
2023-03-29T13:03:37.525Z,43.70
2023-03-29T13:04:52.510Z,42.09
2023-03-29T13:06:06.631Z,42.11
2023-03-29T13:07:16.044Z,41.86
2023-03-29T13:08:28.691Z,41.96
2023-03-29T13:09:48.372Z,40.86
2023-03-29T13:10:54.863Z,41.33
2023-03-29T13:12:04.491Z,41.85
2023-03-29T13:13:23.716Z,41.46
2023-03-29T13:14:30.796Z,41.18
2023-03-29T13:15:34.941Z,40.10
2023-03-29T13:16:38.207Z,41.36
2023-03-29T13:17:58.376Z,41.25
2023-03-29T13:19:10.499Z,42.07
2023-03-29T13:20:37.657Z,41.23
2023-03-29T13:22:04.734Z,41.56
2023-03-29T13:23:32.301Z,42.39
2023-03-29T13:24:45.939Z,40.71
2023-03-29T13:26:00.626Z,40.18
2023-03-29T13:27:27.509Z,42.19
2023-03-29T13:28:45.460Z,41.34
2023-03-29T13:29:56.346Z,42.10
2023-03-29T13:31:27.309Z,41.68
2023-03-29T13:32:41.500Z,42.25
2023-03-29T13:33:49.540Z,41.07
2023-03-29T13:35:06.390Z,41.29
2023-03-29T13:36:59.401Z,41.59
2023-03-29T13:38:23.274Z,41.35
2023-03-29T13:39:29.576Z,41.90
2023-03-29T13:40:40.609Z,43.11
2023-03-29T13:41:43.249Z,42.15
2023-03-29T13:42:58.721Z,42.66
2023-03-29T13:44:01.347Z,42.31
2023-03-29T13:45:23.956Z,41.32
2023-03-29T13:46:47.552Z,41.51
2023-03-29T13:48:02.617Z,41.32
2023-03-29T13:49:13.138Z,41.07
2023-03-29T13:50:22.177Z,41.08
2023-03-29T13:51:54.011Z,41.02
2023-03-29T13:53:04.225Z,41.53
2023-03-29T13:54:24.204Z,41.68
2023-03-29T13:55:32.234Z,40.14
2023-03-29T13:56:39.785Z,39.46
2023-03-29T13:57:47.701Z,40.62
2023-03-29T13:58:53.394Z,40.36
2023-03-29T13:59:59.870Z,40.40
2023-03-29T14:01:03.386Z,40.82
2023-03-29T14:02:06.570Z,39.99
2023-03-29T14:03:12.377Z,40.08
2023-03-29T14:04:20.611Z,39.68
2023-03-29T14:05:28.959Z,40.12
2023-03-29T14:06:33.606Z,41.30
2023-03-29T14:07:38.595Z,41.54
2023-03-29T14:08:44.430Z,41.19
2023-03-29T14:09:49.986Z,41.47
2023-03-29T14:10:53.766Z,42.30
2023-03-29T14:11:59.844Z,42.67
2023-03-29T14:13:04.271Z,41.68
2023-03-29T14:14:08.480Z,41.57
2023-03-29T14:15:27.271Z,42.89
2023-03-29T14:16:37.355Z,43.25
2023-03-29T14:17:40.260Z,43.66
2023-03-29T14:18:45.040Z,43.48
2023-03-29T14:19:47.415Z,43.51
2023-03-29T14:20:55.531Z,44.36
2023-03-29T14:21:58.235Z,44.52
2023-03-29T14:23:00.396Z,44.52
2023-03-29T14:24:03.215Z,44.74
2023-03-29T14:25:15.633Z,44.93
2023-03-29T14:26:21.839Z,45.35
2023-03-29T14:27:26.531Z,45.33
2023-03-29T14:28:29.311Z,45.86
2023-03-29T14:29:36.112Z,47.81
2023-03-29T14:30:39.893Z,46.01
2023-03-29T14:31:44.708Z,45.85
2023-03-29T14:32:48.815Z,45.83
2023-03-29T14:33:54.940Z,45.30
2023-03-29T14:34:56.999Z,46.00
2023-03-29T14:36:04.292Z,47.35
2023-03-29T14:37:09.057Z,46.69
2023-03-29T14:38:13.212Z,47.14
2023-03-29T14:39:21.816Z,48.47
2023-03-29T14:40:24.883Z,49.26
2023-03-29T14:41:34.444Z,49.64
2023-03-29T14:42:37.932Z,51.98
2023-03-29T14:43:40.279Z,53.12
2023-03-29T14:44:43.661Z,55.88
2023-03-29T14:45:47.494Z,58.03
2023-03-29T14:46:50.263Z,59.41
2023-03-29T14:47:52.258Z,61.78
2023-03-29T14:48:54.743Z,62.15
2023-03-29T14:49:58.885Z,64.16
2023-03-29T14:51:01.136Z,64.80
2023-03-29T14:52:03.481Z,65.53
2023-03-29T14:53:06.836Z,65.36
2023-03-29T14:54:10.644Z,65.84
2023-03-29T14:55:13.000Z,66.76
2023-03-29T14:56:18.479Z,67.12
2023-03-29T14:57:24.697Z,68.28
2023-03-29T14:58:32.994Z,66.36
2023-03-29T14:59:35.146Z,66.32
2023-03-29T15:00:42.729Z,66.33
2023-03-29T15:01:45.062Z,66.34
2023-03-29T15:03:14.127Z,66.87
2023-03-29T15:04:16.631Z,67.58
2023-03-29T15:05:25.454Z,68.42
2023-03-29T15:06:29.342Z,67.36
2023-03-29T15:07:32.746Z,67.38
2023-03-29T15:08:41.487Z,68.97